VIRB weather

Fursatganj Airport
Uttar Pradesh, India

Public forecast

Using degrees Celsius for public forecast. Weather courtesy of forecast.io.

METAR (pilot weather report)

Closest report is Chaudhary Charan Singh International Airport, 40.5 nm (75.0 km) NW. Retrieved 2019/09/15 12:30 UTC (9 minutes ago):

VILK 151230Z 16003KT 4000 HZ SCT020 SCT025 FEW030CB 31/27 Q1003 NOSIG

TAF (pilot weather forecast)

Closest forecast is Chaudhary Charan Singh International Airport, 40.5 nm (75.0 km) NW. Retrieved 2019/09/15 12:00 UTC (39 minutes ago):

TAF VILK 151100Z 1512/1618 17004KT 4000 HZ SCT020 SCT100 TEMPO 1514/1518 1500 -TSRA RA SCT018 FEW030CB OVC090 BECMG 1520/1522 VRB02KT 3000 BR SCT020 SCT100 TEMPO 1602/1606 FEW030CB BECMG 1608/1610 3000 BR TEMPO 1612/1616 1500 -TSRA RA SCT018 FEW030CB OVC090